Arcadia, South Carolina
Current Conditions -  °F | °C
As of 6:15 PM on Tuesday 27 Jan 2015 (Local Time) from KSPA Reporting Station
Clear Clear  
Wind Chill: 36°   Ceiling: Unl
Heat Index: 43°   Visibility: 10mi
Dew Point: 23°   Wind: 14mph
Humidity: 46%   Direction: 320°NW
Pressure: 29.93"   Gusts: 20mph
Location:  34.96°N, 81.99°W
Report Text: KSPA 272315Z AUTO 32012G17KT 10SM CLR 06/M05 A2993 RMK AO2
Loading
Personal Weather Stations






























Interactive Weather Map New forecast layout! Learn more

10-Day Weather Forecast

Advertisements
Track Severe Weather on mobile